Time;durP1;ratioP1;P1;durP2;ratioP2;P2;SDS_P1;SDS_P2;PMS_P1;PMS_P2;Temp;Humidity;BMP_temperature;BMP_pressure;BME280_temperature;BME280_humidity;BME280_pressure;Samples;Min_cycle;Max_cycle;Signal;HPM_P1;HPM_P2
2021/01/15 00:01:47;;;;;;;14.10;12.50;;;0.30;99.20;;;;;;5076745;28;20251;-76
2021/01/15 00:04:12;;;;;;;15.57;11.93;;;0.20;99.30;;;;;;5083777;28;20174;-76
2021/01/15 00:06:38;;;;;;;16.43;12.37;;;0.20;99.70;;;;;;5079142;28;20197;-75
2021/01/15 00:09:04;;;;;;;15.23;12.30;;;0.20;99.90;;;;;;5078340;28;20444;-76
2021/01/15 00:11:31;;;;;;;17.93;12.53;;;0.20;99.90;;;;;;5085268;28;20321;-76
2021/01/15 00:14:00;;;;;;;15.30;12.03;;;0.20;99.90;;;;;;5081319;28;20622;-76
2021/01/15 00:16:30;;;;;;;13.47;11.00;;;0.20;99.90;;;;;;5086758;28;20578;-77
2021/01/15 00:18:57;;;;;;;13.87;11.63;;;0.20;99.90;;;;;;5084393;28;20177;-76
2021/01/15 00:21:25;;;;;;;14.30;11.13;;;0.20;99.90;;;;;;5090705;28;20317;-76
2021/01/15 00:23:56;;;;;;;13.83;11.63;;;0.20;99.70;;;;;;5084086;28;20178;-76
2021/01/15 00:26:23;;;;;;;15.20;11.40;;;0.20;99.90;;;;;;5084582;28;20204;-76
2021/01/15 00:28:50;;;;;;;14.40;12.00;;;0.20;99.70;;;;;;5084850;28;20180;-76
2021/01/15 00:31:16;;;;;;;16.23;12.60;;;0.30;99.70;;;;;;5086660;28;20218;-76
2021/01/15 00:33:42;;;;;;;14.60;12.03;;;0.30;99.10;;;;;;5073744;28;20175;-76
2021/01/15 00:36:08;;;;;;;15.60;12.70;;;0.30;99.30;;;;;;5085197;28;20242;-76
2021/01/15 00:38:35;;;;;;;13.87;11.93;;;0.30;99.60;;;;;;5078403;28;20264;-76
2021/01/15 00:41:05;;;;;;;14.77;11.50;;;0.30;99.40;;;;;;5078776;28;20206;-77
2021/01/15 00:43:32;;;;;;;14.13;12.10;;;0.30;99.40;;;;;;5081107;28;20657;-75
2021/01/15 00:45:58;;;;;;;14.13;11.57;;;0.30;99.40;;;;;;5082438;28;20182;-76
2021/01/15 00:48:23;;;;;;;13.67;11.23;;;0.30;99.30;;;;;;5084377;28;20213;-76
2021/01/15 00:50:49;;;;;;;14.73;11.90;;;0.30;98.90;;;;;;5078211;28;20190;-75
2021/01/15 00:53:15;;;;;;;14.47;11.73;;;0.30;99.20;;;;;;5085730;28;20187;-76
2021/01/15 00:55:40;;;;;;;14.70;12.23;;;0.30;99.20;;;;;;5079025;28;20233;-75
2021/01/15 00:58:06;;;;;;;16.90;11.90;;;0.30;99.20;;;;;;5074132;28;20753;-76
2021/01/15 01:00:32;;;;;;;13.53;11.67;;;0.30;99.30;;;;;;5084895;28;20685;-76
2021/01/15 01:02:58;;;;;;;14.40;12.07;;;0.30;99.10;;;;;;5084964;28;20217;-76
2021/01/15 01:05:24;;;;;;;15.10;11.27;;;0.30;99.40;;;;;;5083694;28;20200;-76
2021/01/15 01:07:51;;;;;;;13.93;11.53;;;0.20;99.10;;;;;;5078721;28;20210;-76
2021/01/15 01:10:17;;;;;;;16.77;11.70;;;0.20;99.00;;;;;;5080961;28;20256;-77
2021/01/15 01:12:44;;;;;;;14.43;11.63;;;0.20;99.30;;;;;;5080364;28;20188;-76
2021/01/15 01:15:11;;;;;;;15.00;10.67;;;0.20;99.40;;;;;;5078270;28;20213;-76
2021/01/15 01:17:38;;;;;;;11.27;9.90;;;0.20;98.80;;;;;;5081539;28;20203;-76
2021/01/15 01:20:05;;;;;;;12.73;10.50;;;0.20;98.40;;;;;;5082209;28;20178;-76
2021/01/15 01:22:31;;;;;;;16.93;12.03;;;0.20;98.30;;;;;;5082331;28;20173;-76
2021/01/15 01:24:57;;;;;;;11.63;9.47;;;0.20;98.30;;;;;;5089917;28;20601;-77
2021/01/15 01:27:22;;;;;;;11.43;9.57;;;0.20;98.40;;;;;;5078466;28;20206;-76
2021/01/15 01:29:48;;;;;;;13.67;9.77;;;0.20;98.40;;;;;;5085347;28;20179;-76
2021/01/15 01:32:14;;;;;;;11.20;10.00;;;0.10;98.50;;;;;;5077028;28;20380;-76
2021/01/15 01:34:39;;;;;;;11.83;9.60;;;0.10;98.40;;;;;;5078026;28;20232;-76
2021/01/15 01:37:06;;;;;;;12.17;9.30;;;0.10;98.80;;;;;;5084148;28;20589;-76
2021/01/15 01:39:31;;;;;;;9.80;8.90;;;0.10;98.80;;;;;;5084955;28;20641;-75
2021/01/15 01:41:57;;;;;;;9.67;8.57;;;0.10;98.90;;;;;;5079008;28;20210;-76
2021/01/15 01:44:22;;;;;;;10.40;7.77;;;0.10;98.60;;;;;;5084171;28;20756;-76
2021/01/15 01:46:48;;;;;;;10.20;8.77;;;0.10;98.30;;;;;;5078812;28;20285;-76
2021/01/15 01:49:15;;;;;;;9.50;8.10;;;0.00;98.60;;;;;;5081287;28;20372;-76
2021/01/15 01:51:41;;;;;;;10.40;8.33;;;0.00;98.90;;;;;;5076960;28;20189;-76
2021/01/15 01:54:08;;;;;;;9.70;7.93;;;0.00;98.90;;;;;;5075027;28;20842;-76
2021/01/15 01:56:34;;;;;;;9.73;8.40;;;0.00;98.60;;;;;;5076861;28;20863;-76
2021/01/15 01:59:01;;;;;;;9.90;7.23;;;0.00;98.80;;;;;;5068354;28;20182;-76
2021/01/15 02:01:26;;;;;;;7.73;6.93;;;0.00;97.80;;;;;;5079817;28;20200;-76
2021/01/15 02:04:02;;;;;;;9.03;6.60;;;0.00;97.30;;;;;;5086760;28;20714;-76
2021/01/15 02:06:29;;;;;;;7.43;6.37;;;0.00;97.60;;;;;;5079426;28;20585;-75
2021/01/15 02:08:55;;;;;;;9.73;7.40;;;0.00;97.60;;;;;;5082643;28;20730;-76
2021/01/15 02:11:44;;;;;;;8.80;6.00;;;0.00;97.60;;;;;;5076714;28;20541;-76
2021/01/15 02:14:19;;;;;;;6.40;5.63;;;0.00;97.20;;;;;;5077641;28;20209;-76
2021/01/15 02:16:47;;;;;;;6.97;6.13;;;0.00;97.60;;;;;;5076106;28;20239;-75
2021/01/15 02:19:21;;;;;;;6.43;5.83;;;0.00;97.70;;;;;;5081269;28;20193;-76
2021/01/15 02:22:06;;;;;;;6.73;5.73;;;0.00;97.50;;;;;;5086359;28;20193;-76
2021/01/15 02:24:56;;;;;;;6.80;5.30;;;-0.10;97.50;;;;;;5085204;28;20167;-76
2021/01/15 02:27:40;;;;;;;8.63;6.03;;;-0.10;97.40;;;;;;5081301;28;20699;-75
2021/01/15 02:30:12;;;;;;;7.43;5.17;;;-0.10;97.60;;;;;;5078164;28;20883;-75
2021/01/15 02:33:02;;;;;;;5.93;4.90;;;-0.20;97.90;;;;;;5076982;28;20192;-76
2021/01/15 02:35:54;;;;;;;6.30;5.20;;;-0.20;97.20;;;;;;5086415;28;20238;-75
2021/01/15 02:38:27;;;;;;;6.60;5.40;;;-0.20;96.90;;;;;;5061749;28;20223;-76
2021/01/15 02:41:04;;;;;;;5.53;5.03;;;-0.20;97.10;;;;;;5074996;28;20192;-75
2021/01/15 02:43:33;;;;;;;6.50;5.10;;;-0.20;97.20;;;;;;5073615;28;20185;-76
2021/01/15 02:46:02;;;;;;;5.50;5.00;;;-0.20;96.60;;;;;;5076268;28;20265;-75
2021/01/15 02:48:30;;;;;;;5.83;5.10;;;-0.30;96.40;;;;;;5082060;28;20699;-75
2021/01/15 02:50:59;;;;;;;7.00;5.57;;;-0.30;96.30;;;;;;5079871;28;20184;-76
2021/01/15 02:53:26;;;;;;;6.60;4.70;;;-0.30;96.50;;;;;;5084993;28;20189;-75
2021/01/15 02:55:52;;;;;;;10.50;5.60;;;-0.30;96.60;;;;;;5084390;28;20560;-75
2021/01/15 02:58:17;;;;;;;5.73;4.90;;;-0.40;96.70;;;;;;5083010;28;20214;-75
2021/01/15 03:00:43;;;;;;;5.43;4.77;;;-0.40;96.80;;;;;;5083577;28;20175;-76
2021/01/15 03:03:25;;;;;;;7.50;4.80;;;-0.40;97.00;;;;;;5087268;28;20181;-75
2021/01/15 03:06:04;;;;;;;6.87;4.90;;;-0.50;96.50;;;;;;5088905;28;20209;-75
2021/01/15 03:08:30;;;;;;;6.37;4.87;;;-0.50;96.60;;;;;;5082304;28;20170;-75
2021/01/15 03:11:00;;;;;;;5.93;5.10;;;-0.50;96.50;;;;;;5091644;28;20564;-77
2021/01/15 03:13:28;;;;;;;5.00;4.60;;;-0.50;96.50;;;;;;5082740;28;20654;-76
2021/01/15 03:15:57;;;;;;;9.00;5.10;;;-0.60;96.60;;;;;;5080308;28;20201;-75
2021/01/15 03:18:24;;;;;;;4.67;4.23;;;-0.60;96.50;;;;;;5079857;28;20257;-75
2021/01/15 03:20:50;;;;;;;4.83;4.43;;;-0.60;96.30;;;;;;5083396;28;20316;-75
2021/01/15 03:23:16;;;;;;;5.10;4.60;;;-0.60;96.50;;;;;;5085077;28;20209;-75
2021/01/15 03:25:42;;;;;;;7.37;4.33;;;-0.60;96.50;;;;;;5083050;28;20259;-76
2021/01/15 03:28:07;;;;;;;5.77;4.93;;;-0.70;96.50;;;;;;5081263;28;20190;-76
2021/01/15 03:30:34;;;;;;;4.90;4.07;;;-0.80;96.60;;;;;;5076364;28;20292;-76
2021/01/15 03:33:01;;;;;;;5.60;4.20;;;-0.80;97.20;;;;;;5090348;28;20227;-75
2021/01/15 03:35:28;;;;;;;6.90;5.03;;;-0.80;97.60;;;;;;5082419;28;20190;-76
2021/01/15 03:38:11;;;;;;;6.00;5.03;;;-0.90;97.90;;;;;;5088464;28;20199;-77
2021/01/15 03:40:42;;;;;;;5.40;4.70;;;-0.90;97.60;;;;;;5078139;28;20222;-76
2021/01/15 03:43:16;;;;;;;4.97;4.43;;;-1.00;97.90;;;;;;5086475;28;20600;-76
2021/01/15 03:45:43;;;;;;;6.00;5.50;;;-1.00;97.90;;;;;;5090723;28;20210;-75
2021/01/15 03:48:09;;;;;;;6.83;4.77;;;-1.00;98.40;;;;;;5092136;28;20246;-76
2021/01/15 03:50:36;;;;;;;4.83;4.10;;;-1.00;98.20;;;;;;5093040;28;20340;-76
2021/01/15 03:53:02;;;;;;;5.43;4.40;;;-1.00;98.20;;;;;;5085765;28;20799;-78
2021/01/15 03:55:28;;;;;;;4.73;4.30;;;-1.00;98.00;;;;;;5084993;28;20196;-75
2021/01/15 03:57:53;;;;;;;5.00;4.50;;;-1.00;97.80;;;;;;5090426;28;20574;-76
2021/01/15 04:00:19;;;;;;;5.67;5.17;;;-1.00;97.40;;;;;;5079324;28;20181;-76
2021/01/15 04:02:45;;;;;;;5.60;4.57;;;-1.00;97.00;;;;;;5088698;28;20653;-75
2021/01/15 04:05:12;;;;;;;6.00;4.90;;;-1.00;96.80;;;;;;5082766;28;20696;-76
2021/01/15 04:07:38;;;;;;;5.93;4.10;;;-1.10;97.00;;;;;;5082722;28;20195;-76
2021/01/15 04:10:15;;;;;;;4.90;4.33;;;-1.10;97.20;;;;;;5080669;28;20565;-76
2021/01/15 04:12:42;;;;;;;6.00;4.20;;;-1.20;97.30;;;;;;5096933;28;20208;-76
2021/01/15 04:15:10;;;;;;;4.90;4.50;;;-1.20;97.40;;;;;;5100837;28;20191;-75
2021/01/15 04:17:36;;;;;;;5.60;4.60;;;-1.20;97.40;;;;;;5113789;28;20200;-76
2021/01/15 04:20:06;;;;;;;4.37;3.97;;;-1.30;97.60;;;;;;5101587;28;20220;-78
2021/01/15 04:22:37;;;;;;;7.17;5.10;;;-1.30;97.70;;;;;;5112521;28;20180;-76
2021/01/15 04:25:04;;;;;;;5.97;4.37;;;-1.30;97.90;;;;;;5095463;28;20195;-76
2021/01/15 04:27:30;;;;;;;5.30;4.80;;;-1.40;98.00;;;;;;5077860;28;20672;-76
2021/01/15 04:29:56;;;;;;;8.17;4.93;;;-1.40;98.50;;;;;;5075918;28;20185;-76
2021/01/15 04:32:22;;;;;;;5.70;5.00;;;-1.40;98.30;;;;;;5082293;28;20663;-76
2021/01/15 04:34:48;;;;;;;5.43;4.93;;;-1.50;98.60;;;;;;5080240;28;20184;-77
2021/01/15 04:37:14;;;;;;;8.10;5.10;;;-1.50;99.00;;;;;;5081577;28;20214;-76
2021/01/15 04:39:39;;;;;;;7.30;4.97;;;-1.60;99.20;;;;;;5078560;28;20194;-77
2021/01/15 04:42:05;;;;;;;8.27;5.20;;;-1.60;99.20;;;;;;5079693;28;20710;-76
2021/01/15 04:44:31;;;;;;;7.13;5.07;;;-1.70;99.30;;;;;;5080605;28;20666;-76
2021/01/15 04:47:01;;;;;;;6.50;5.80;;;-1.70;99.30;;;;;;5084686;28;20202;-77
2021/01/15 04:49:28;;;;;;;7.23;6.23;;;-1.70;99.30;;;;;;5084239;28;20184;-76
2021/01/15 04:51:59;;;;;;;7.47;5.60;;;-1.70;98.90;;;;;;5085937;28;20188;-77
2021/01/15 04:54:38;;;;;;;8.13;6.00;;;-1.80;99.00;;;;;;5074889;28;20205;-76
2021/01/15 04:57:06;;;;;;;6.93;6.23;;;-1.80;99.20;;;;;;5083975;28;20214;-76
2021/01/15 04:59:37;;;;;;;9.53;6.53;;;-1.90;99.30;;;;;;5083033;28;20777;-77
2021/01/15 05:02:08;;;;;;;7.20;6.00;;;-1.90;99.60;;;;;;5082168;28;20556;-76
2021/01/15 05:04:34;;;;;;;6.70;5.00;;;-1.90;99.50;;;;;;5082080;28;20175;-76
2021/01/15 05:07:05;;;;;;;6.50;5.87;;;-1.90;98.90;;;;;;5079424;28;20625;-77
2021/01/15 05:09:41;;;;;;;6.37;5.60;;;-1.90;98.40;;;;;;5087862;28;20172;-76
2021/01/15 05:12:12;;;;;;;6.87;5.67;;;-1.90;98.80;;;;;;5086761;28;20248;-76
2021/01/15 05:14:38;;;;;;;6.73;6.10;;;-1.90;99.20;;;;;;5084667;28;20183;-76
2021/01/15 05:17:06;;;;;;;7.17;6.03;;;-1.90;99.20;;;;;;5084850;28;20737;-78
2021/01/15 05:19:37;;;;;;;6.53;5.90;;;-2.00;99.50;;;;;;5088798;28;20259;-78
2021/01/15 05:22:02;;;;;;;6.27;5.67;;;-2.00;99.90;;;;;;5080439;28;20695;-76
2021/01/15 05:24:28;;;;;;;6.87;6.13;;;-2.00;99.90;;;;;;5086165;28;20276;-77
2021/01/15 05:26:54;;;;;;;7.40;5.90;;;-2.00;99.90;;;;;;5082176;28;20610;-76
2021/01/15 05:29:20;;;;;;;13.70;6.63;;;-2.10;99.90;;;;;;5078687;28;20195;-77
2021/01/15 05:32:01;;;;;;;6.53;5.83;;;-2.10;99.90;;;;;;5080523;28;20581;-75
2021/01/15 05:34:28;;;;;;;7.00;6.30;;;-2.10;99.90;;;;;;5083403;28;20190;-76
2021/01/15 05:36:54;;;;;;;5.50;5.00;;;-2.10;99.90;;;;;;5082429;28;20261;-78
2021/01/15 05:39:25;;;;;;;8.67;6.40;;;-2.10;99.90;;;;;;5081223;28;20237;-77
2021/01/15 05:42:01;;;;;;;6.90;6.20;;;-2.10;99.90;;;;;;5075785;28;20183;-76
2021/01/15 05:44:33;;;;;;;6.73;5.87;;;-2.10;99.90;;;;;;5078180;28;20258;-78
2021/01/15 05:47:00;;;;;;;10.63;7.03;;;-2.20;99.90;;;;;;5079080;28;20257;-76
2021/01/15 05:49:29;;;;;;;8.47;6.77;;;-2.20;99.90;;;;;;5077789;28;20208;-77
2021/01/15 05:52:06;;;;;;;10.20;7.07;;;-2.30;99.90;;;;;;5083971;28;20212;-77
2021/01/15 05:54:33;;;;;;;12.13;8.80;;;-2.40;99.90;;;;;;5083745;28;20265;-76
2021/01/15 05:57:00;;;;;;;13.60;9.40;;;-2.40;99.90;;;;;;5081130;28;20226;-76
2021/01/15 05:59:27;;;;;;;11.03;8.80;;;-2.40;99.90;;;;;;5078697;28;20179;-76
2021/01/15 06:02:04;;;;;;;11.57;8.17;;;-2.30;99.90;;;;;;5083666;28;20261;-76
2021/01/15 06:04:33;;;;;;;12.03;8.27;;;-2.30;99.90;;;;;;5074213;28;20174;-77
2021/01/15 06:07:01;;;;;;;9.53;7.10;;;-2.30;99.90;;;;;;5082024;28;20204;-77
2021/01/15 06:09:26;;;;;;;12.17;7.63;;;-2.40;99.90;;;;;;5074783;28;20189;-77
2021/01/15 06:12:07;;;;;;;10.07;8.20;;;-2.40;99.90;;;;;;5084473;28;20235;-79
2021/01/15 06:14:33;;;;;;;10.30;7.27;;;-2.40;99.90;;;;;;5084418;28;20187;-76
2021/01/15 06:17:09;;;;;;;9.27;7.50;;;-2.40;99.90;;;;;;5075538;28;20215;-75
2021/01/15 06:19:46;;;;;;;9.67;7.30;;;-2.40;99.90;;;;;;5071853;28;20195;-77
2021/01/15 06:22:37;;;;;;;8.03;6.30;;;-2.40;99.90;;;;;;5081928;28;20253;-75
2021/01/15 06:25:14;;;;;;;7.60;6.53;;;-2.40;99.90;;;;;;5075701;28;20545;-76
2021/01/15 06:27:42;;;;;;;10.50;6.73;;;-2.40;99.90;;;;;;5077125;28;20247;-76
2021/01/15 06:30:13;;;;;;;19.20;7.30;;;-2.40;99.90;;;;;;5079732;28;20198;-76
2021/01/15 06:32:38;;;;;;;8.50;7.30;;;-2.50;99.90;;;;;;5079639;28;20220;-77
2021/01/15 06:35:05;;;;;;;9.23;7.77;;;-2.50;99.90;;;;;;5080158;28;20209;-75
2021/01/15 06:37:34;;;;;;;9.23;7.33;;;-2.50;99.90;;;;;;5078224;28;20643;-77
2021/01/15 06:40:04;;;;;;;8.10;6.87;;;-2.50;99.90;;;;;;5082113;28;20179;-76
2021/01/15 06:42:30;;;;;;;9.13;7.67;;;-2.50;99.90;;;;;;5077324;28;20177;-75
2021/01/15 06:44:57;;;;;;;9.27;7.50;;;-2.50;99.90;;;;;;5082844;28;20557;-75
2021/01/15 06:47:26;;;;;;;9.63;7.67;;;-2.50;99.90;;;;;;5074158;28;20212;-77
2021/01/15 06:49:55;;;;;;;8.93;7.80;;;-2.50;99.90;;;;;;5085590;28;20190;-77
2021/01/15 06:52:26;;;;;;;8.10;7.03;;;-2.40;99.90;;;;;;5081578;28;20487;-77
2021/01/15 06:54:55;;;;;;;8.47;7.27;;;-2.40;99.60;;;;;;5078706;28;20220;-77
2021/01/15 06:57:28;;;;;;;8.67;7.50;;;-2.50;99.60;;;;;;5073611;28;20648;-76
2021/01/15 06:59:58;;;;;;;9.47;7.47;;;-2.50;99.40;;;;;;5076310;28;20190;-77
2021/01/15 07:02:26;;;;;;;16.47;10.40;;;-2.50;99.30;;;;;;5081963;28;20291;-77
2021/01/15 07:05:03;;;;;;;10.70;9.40;;;-2.40;99.70;;;;;;5080579;28;20200;-77
2021/01/15 07:07:30;;;;;;;11.40;8.57;;;-2.10;99.90;;;;;;5073384;28;20209;-77
2021/01/15 07:09:59;;;;;;;11.43;9.13;;;-1.90;99.90;;;;;;5081992;28;20209;-77
2021/01/15 07:12:25;;;;;;;10.53;8.77;;;-1.70;98.30;;;;;;5079362;28;20188;-77
2021/01/15 07:14:57;;;;;;;13.17;9.83;;;-1.60;97.20;;;;;;5079997;28;20187;-78
2021/01/15 07:17:33;;;;;;;18.40;13.47;;;-1.50;97.00;;;;;;5082843;28;20221;-78
2021/01/15 07:20:19;;;;;;;11.87;10.37;;;-1.40;97.50;;;;;;5083066;28;20236;-78
2021/01/15 07:22:52;;;;;;;10.00;7.73;;;-1.30;96.30;;;;;;5087865;28;20665;-77
2021/01/15 07:25:22;;;;;;;8.80;7.90;;;-1.30;96.00;;;;;;5082486;28;20259;-77
2021/01/15 07:27:48;;;;;;;10.27;8.70;;;-1.20;95.40;;;;;;5071817;28;20247;-77
2021/01/15 07:30:24;;;;;;;11.30;8.80;;;-1.10;95.10;;;;;;5081627;28;20251;-77
2021/01/15 07:32:54;;;;;;;13.73;9.30;;;-1.00;94.70;;;;;;5082438;28;20187;-77
2021/01/15 07:35:22;;;;;;;10.20;8.50;;;-0.90;94.60;;;;;;5080197;28;20328;-78
2021/01/15 07:37:48;;;;;;;11.23;8.43;;;-0.60;94.00;;;;;;5076978;28;20197;-77
2021/01/15 07:40:18;;;;;;;12.37;11.17;;;0.10;92.00;;;;;;5083974;28;20171;-77
2021/01/15 07:42:48;;;;;;;15.20;13.80;;;0.50;89.10;;;;;;5078398;28;20231;-77
2021/01/15 07:45:25;;;;;;;17.20;15.50;;;0.60;87.40;;;;;;5079751;28;20317;-77
2021/01/15 07:48:05;;;;;;;12.20;11.03;;;0.80;86.10;;;;;;5080787;28;20199;-79
2021/01/15 07:50:42;;;;;;;14.17;12.73;;;1.00;85.80;;;;;;5082123;28;20174;-77
2021/01/15 07:53:44;;;;;;;13.77;12.03;;;1.20;85.30;;;;;;5082184;28;20751;-77
2021/01/15 07:56:10;;;;;;;12.13;10.80;;;1.50;83.70;;;;;;5063833;28;20228;-77
2021/01/15 07:58:38;;;;;;;9.53;8.63;;;1.70;81.40;;;;;;5062121;28;20244;-78
2021/01/15 08:01:06;;;;;;;12.83;9.73;;;2.00;79.60;;;;;;5059958;28;20179;-77
2021/01/15 08:03:49;;;;;;;9.40;8.43;;;2.50;77.50;;;;;;5063418;28;20225;-77
2021/01/15 08:06:19;;;;;;;9.90;8.23;;;2.80;73.50;;;;;;5057002;28;20212;-77
2021/01/15 08:09:02;;;;;;;10.90;9.83;;;3.10;70.60;;;;;;5062841;28;20182;-76
2021/01/15 08:11:29;;;;;;;10.63;9.40;;;3.20;70.00;;;;;;5045340;28;20180;-77
2021/01/15 08:14:21;;;;;;;12.27;10.43;;;3.20;69.70;;;;;;5048576;28;20186;-77
2021/01/15 08:16:48;;;;;;;12.40;11.10;;;3.20;68.60;;;;;;5049208;28;20381;-76
2021/01/15 08:19:16;;;;;;;10.53;9.53;;;3.70;68.40;;;;;;5057129;28;20202;-77
2021/01/15 08:21:44;;;;;;;12.03;10.83;;;4.40;63.90;;;;;;5053208;28;20717;-77
2021/01/15 08:24:10;;;;;;;10.97;9.83;;;5.00;62.20;;;;;;5066399;28;20305;-77
2021/01/15 08:26:53;;;;;;;9.20;8.20;;;5.40;59.30;;;;;;5048518;28;20214;-77
2021/01/15 08:29:21;;;;;;;9.60;8.73;;;5.30;59.10;;;;;;5060920;28;20190;-78
2021/01/15 08:31:48;;;;;;;9.27;8.33;;;5.80;57.30;;;;;;5072303;28;20224;-78
2021/01/15 08:34:16;;;;;;;8.80;8.00;;;6.20;56.10;;;;;;5082762;28;20178;-77
2021/01/15 08:36:47;;;;;;;9.83;8.03;;;6.90;55.00;;;;;;5080574;28;20207;-77
2021/01/15 08:39:13;;;;;;;9.10;8.20;;;7.60;52.80;;;;;;5085601;28;20658;-77
2021/01/15 08:41:40;;;;;;;9.87;8.50;;;7.70;50.80;;;;;;5086774;28;20170;-78
2021/01/15 08:44:06;;;;;;;13.23;8.43;;;8.20;51.00;;;;;;5078228;28;20280;-77
2021/01/15 08:46:34;;;;;;;9.77;8.43;;;8.90;49.20;;;;;;5081893;28;20206;-77
2021/01/15 08:49:06;;;;;;;9.57;8.60;;;8.90;47.60;;;;;;5089440;28;20182;-77
2021/01/15 08:51:34;;;;;;;8.07;7.28;;;8.60;47.90;;;;;;5085911;28;20186;-78
2021/01/15 08:54:04;;;;;;;8.07;7.25;;;8.40;48.60;;;;;;5106877;28;20196;-77
2021/01/15 08:56:44;;;;;;;8.35;7.55;;;7.60;49.10;;;;;;5099742;28;20252;-77
2021/01/15 08:59:12;;;;;;;8.27;7.53;;;7.30;50.60;;;;;;5104791;28;20150;-77
2021/01/15 09:01:40;;;;;;;8.15;7.35;;;7.10;51.90;;;;;;5109203;28;20174;-77
2021/01/15 09:04:15;;;;;;;9.18;7.60;;;7.40;51.30;;;;;;5106148;28;20178;-77
2021/01/15 09:06:42;;;;;;;8.75;7.90;;;7.40;50.40;;;;;;5104155;28;20193;-77
2021/01/15 09:09:10;;;;;;;9.40;8.40;;;7.20;50.70;;;;;;5101668;28;20189;-77
2021/01/15 09:11:38;;;;;;;8.13;7.10;;;7.40;51.40;;;;;;5098940;28;20183;-77
2021/01/15 09:14:05;;;;;;;7.65;7.05;;;7.50;51.00;;;;;;5109504;28;20246;-77
2021/01/15 09:16:31;;;;;;;8.93;8.05;;;7.40;51.40;;;;;;5095893;28;20202;-76
2021/01/15 09:19:05;;;;;;;7.82;7.18;;;7.40;50.50;;;;;;5108647;28;20178;-77
2021/01/15 09:21:31;;;;;;;7.70;7.00;;;7.60;50.50;;;;;;5101055;28;20262;-76
2021/01/15 09:23:57;;;;;;;8.70;7.20;;;8.20;49.60;;;;;;5100526;28;20167;-75
2021/01/15 09:26:23;;;;;;;7.57;6.82;;;9.10;48.40;;;;;;5095513;28;20249;-76
2021/01/15 09:28:48;;;;;;;9.02;8.13;;;10.50;45.60;;;;;;5093618;28;20364;-76
2021/01/15 09:31:14;;;;;;;9.13;8.23;;;11.50;42.60;;;;;;5096711;28;20230;-78
2021/01/15 09:33:49;;;;;;;7.97;7.18;;;12.50;40.60;;;;;;5105534;28;20190;-76
2021/01/15 09:36:27;;;;;;;7.35;6.65;;;13.20;39.00;;;;;;5107048;28;20220;-76
2021/01/15 09:38:55;;;;;;;10.00;6.53;;;12.70;38.40;;;;;;5102578;28;20201;-76
2021/01/15 09:41:21;;;;;;;7.65;6.85;;;13.00;38.60;;;;;;5105541;28;20182;-76
2021/01/15 09:43:51;;;;;;;8.07;7.43;;;13.00;38.20;;;;;;5101581;28;20203;-76
2021/01/15 09:46:25;;;;;;;7.35;6.65;;;13.20;37.60;;;;;;5095723;28;20183;-75
2021/01/15 09:48:52;;;;;;;7.80;7.00;;;14.10;37.00;;;;;;5091966;28;20185;-75
2021/01/15 09:51:28;;;;;;;7.38;6.68;;;14.10;36.30;;;;;;5086959;28;20183;-77
2021/01/15 09:53:55;;;;;;;7.28;6.57;;;14.20;35.90;;;;;;5079391;28;20178;-76
2021/01/15 09:56:28;;;;;;;7.95;6.78;;;14.50;34.90;;;;;;5091163;28;20209;-76
2021/01/15 09:58:58;;;;;;;7.65;6.93;;;14.70;34.90;;;;;;5081877;28;20178;-76
2021/01/15 10:01:26;;;;;;;8.32;7.18;;;14.90;34.20;;;;;;5079470;28;20181;-78
2021/01/15 10:03:53;;;;;;;8.10;7.40;;;14.90;34.30;;;;;;5082421;28;20206;-78
2021/01/15 10:06:19;;;;;;;7.55;6.80;;;15.00;33.80;;;;;;5080780;28;20203;-78
2021/01/15 10:08:45;;;;;;;7.85;6.72;;;15.30;33.50;;;;;;5077714;28;20205;-76
2021/01/15 10:11:21;;;;;;;6.68;6.07;;;14.90;34.00;;;;;;5079866;28;20186;-78
2021/01/15 10:13:47;;;;;;;6.93;6.25;;;14.80;34.10;;;;;;5084751;28;20268;-78
2021/01/15 10:16:13;;;;;;;6.88;6.28;;;14.80;34.00;;;;;;5090334;28;20214;-77
2021/01/15 10:18:40;;;;;;;6.63;6.10;;;15.10;33.20;;;;;;5099883;28;20185;-76
2021/01/15 10:21:07;;;;;;;6.80;6.25;;;14.90;33.00;;;;;;5101397;28;20228;-77
2021/01/15 10:23:39;;;;;;;7.30;6.47;;;15.00;33.70;;;;;;5101644;28;20166;-77
2021/01/15 10:26:05;;;;;;;7.32;6.47;;;15.50;33.90;;;;;;5104531;28;20202;-78
2021/01/15 10:28:31;;;;;;;9.85;8.32;;;17.20;31.20;;;;;;5103272;28;20589;-77
2021/01/15 10:30:57;;;;;;;9.57;6.85;;;17.90;29.70;;;;;;5093929;28;20183;-77
2021/01/15 10:33:23;;;;;;;6.90;6.30;;;18.70;28.80;;;;;;5099617;28;20171;-77
2021/01/15 10:35:50;;;;;;;6.43;5.93;;;19.00;27.90;;;;;;5101807;28;20210;-77
2021/01/15 10:38:16;;;;;;;6.10;5.60;;;19.00;27.50;;;;;;5099918;28;20222;-78
2021/01/15 10:40:44;;;;;;;6.88;6.28;;;18.30;27.70;;;;;;5097317;28;20369;-77
2021/01/15 10:43:10;;;;;;;9.30;6.18;;;18.30;28.60;;;;;;5097377;28;20198;-77
2021/01/15 10:45:35;;;;;;;6.68;6.07;;;18.00;28.90;;;;;;5093681;28;20229;-77
2021/01/15 10:48:03;;;;;;;7.25;6.15;;;17.20;29.20;;;;;;5093701;28;20201;-77
2021/01/15 10:50:30;;;;;;;7.30;6.03;;;17.70;30.00;;;;;;5101694;28;20214;-76
2021/01/15 10:52:55;;;;;;;7.30;6.43;;;18.60;28.60;;;;;;5093353;28;20193;-76
2021/01/15 10:55:21;;;;;;;7.25;6.10;;;18.90;27.90;;;;;;5095110;28;20208;-76
2021/01/15 10:57:47;;;;;;;10.63;7.15;;;18.10;28.60;;;;;;5092506;28;20211;-77
2021/01/15 11:00:15;;;;;;;7.43;6.82;;;17.90;29.20;;;;;;5092893;28;20174;-78
2021/01/15 11:02:40;;;;;;;7.50;6.38;;;18.10;29.10;;;;;;5084894;28;20220;-77
2021/01/15 11:05:07;;;;;;;7.95;7.25;;;18.30;28.80;;;;;;5085938;28;20653;-78
2021/01/15 11:07:33;;;;;;;6.88;6.18;;;18.60;28.20;;;;;;5083246;28;20324;-77
2021/01/15 11:09:59;;;;;;;7.18;6.47;;;19.00;28.20;;;;;;5077310;28;20645;-78
2021/01/15 11:12:24;;;;;;;6.20;5.70;;;18.80;28.20;;;;;;5080156;28;20273;-77
2021/01/15 11:14:50;;;;;;;7.65;6.00;;;19.50;27.50;;;;;;5092114;28;20186;-78
2021/01/15 11:17:15;;;;;;;6.43;5.82;;;18.80;27.50;;;;;;5082191;28;20218;-77
2021/01/15 11:19:41;;;;;;;7.60;6.30;;;18.70;28.00;;;;;;5077035;28;20293;-78
2021/01/15 11:22:07;;;;;;;6.20;5.38;;;19.80;27.50;;;;;;5079222;28;20692;-77
2021/01/15 11:24:32;;;;;;;7.97;6.93;;;20.10;27.00;;;;;;5085832;28;20277;-77
2021/01/15 11:26:58;;;;;;;7.47;6.40;;;19.60;26.70;;;;;;5088054;28;20214;-77
2021/01/15 11:29:24;;;;;;;8.35;6.45;;;19.40;27.10;;;;;;5076220;28;20198;-77
2021/01/15 11:31:49;;;;;;;6.78;6.18;;;19.40;27.40;;;;;;5091485;28;20184;-78
2021/01/15 11:34:16;;;;;;;6.90;6.20;;;19.80;26.70;;;;;;5090168;28;20190;-77
2021/01/15 11:36:42;;;;;;;8.43;7.63;;;20.10;26.30;;;;;;5095849;28;20217;-78
2021/01/15 11:39:10;;;;;;;7.88;7.00;;;19.80;26.60;;;;;;5087110;28;20182;-79
2021/01/15 11:41:35;;;;;;;7.13;6.43;;;20.30;26.10;;;;;;5095905;28;20181;-78
2021/01/15 11:44:01;;;;;;;6.60;6.00;;;19.30;26.70;;;;;;5082561;28;20266;-77
2021/01/15 11:46:27;;;;;;;7.18;6.47;;;19.40;26.70;;;;;;5083261;28;20217;-76
2021/01/15 11:48:53;;;;;;;8.20;6.90;;;19.20;27.80;;;;;;5074755;28;20186;-78
2021/01/15 11:51:18;;;;;;;8.00;7.20;;;19.30;27.60;;;;;;5088625;28;20190;-78
2021/01/15 11:53:44;;;;;;;7.25;6.47;;;19.50;27.50;;;;;;5080658;28;20266;-77
2021/01/15 11:56:09;;;;;;;8.27;7.55;;;19.90;26.90;;;;;;5084701;28;20649;-78
2021/01/15 11:58:36;;;;;;;7.47;6.70;;;20.10;26.50;;;;;;5081276;28;20197;-77
2021/01/15 12:01:03;;;;;;;7.95;6.10;;;20.40;25.80;;;;;;5081728;28;20182;-77
2021/01/15 12:03:29;;;;;;;8.30;5.82;;;20.20;26.60;;;;;;5089337;28;20602;-78
2021/01/15 12:05:54;;;;;;;7.32;6.63;;;20.60;26.10;;;;;;5078550;28;20293;-77
2021/01/15 12:08:24;;;;;;;8.00;7.25;;;19.50;26.20;;;;;;5077589;28;20203;-77
2021/01/15 12:10:54;;;;;;;8.55;6.10;;;19.70;27.70;;;;;;5081514;28;20235;-77
2021/01/15 12:13:20;;;;;;;7.93;6.95;;;20.30;26.80;;;;;;5083277;28;20198;-78
2021/01/15 12:15:53;;;;;;;7.57;6.97;;;19.30;26.50;;;;;;5081558;28;20190;-78
2021/01/15 12:18:19;;;;;;;7.05;6.45;;;18.80;27.20;;;;;;5084717;28;20178;-78
2021/01/15 12:20:45;;;;;;;7.03;6.43;;;19.10;27.50;;;;;;5079288;28;20189;-77
2021/01/15 12:23:15;;;;;;;7.18;6.57;;;19.10;27.10;;;;;;5083262;28;20251;-78
2021/01/15 12:25:41;;;;;;;7.30;6.60;;;19.50;26.60;;;;;;5080037;28;20261;-79
2021/01/15 12:28:11;;;;;;;7.70;6.38;;;18.80;27.40;;;;;;5074184;28;20252;-78
2021/01/15 12:30:38;;;;;;;7.57;6.88;;;19.10;26.90;;;;;;5085318;28;20523;-79
2021/01/15 12:33:07;;;;;;;8.43;7.63;;;18.80;27.40;;;;;;5085682;28;20240;-81
2021/01/15 12:35:34;;;;;;;7.28;6.65;;;18.50;27.70;;;;;;5086115;28;20560;-78
2021/01/15 12:38:07;;;;;;;7.68;6.90;;;19.00;27.70;;;;;;5095690;28;20194;-78
2021/01/15 12:40:33;;;;;;;8.27;7.43;;;19.20;27.10;;;;;;5087322;28;20206;-77
2021/01/15 12:42:58;;;;;;;7.88;7.05;;;18.90;27.80;;;;;;5083720;28;20186;-77
2021/01/15 12:45:24;;;;;;;8.05;7.25;;;19.40;27.60;;;;;;5074959;28;20657;-77
2021/01/15 12:47:50;;;;;;;9.18;8.27;;;19.90;26.80;;;;;;5072166;28;20632;-78
2021/01/15 12:50:15;;;;;;;9.70;8.70;;;19.60;27.20;;;;;;5079441;28;20190;-77
2021/01/15 12:52:41;;;;;;;9.15;8.25;;;19.30;27.40;;;;;;5080079;28;20183;-77
2021/01/15 12:55:07;;;;;;;8.05;7.35;;;18.80;27.60;;;;;;5072845;28;20538;-77